sensor_id;sensor_type;location;lat;lon;timestamp;temperature;humidity
13035;DHT22;6584;48.022;11.810;2022-07-29T00:01:06;20.10;99.90
13035;DHT22;6584;48.022;11.810;2022-07-29T00:03:31;20.10;99.90
13035;DHT22;6584;48.022;11.810;2022-07-29T00:05:57;20.00;99.90
13035;DHT22;6584;48.022;11.810;2022-07-29T00:08:22;20.00;99.90
13035;DHT22;6584;48.022;11.810;2022-07-29T00:10:48;20.00;99.90
13035;DHT22;6584;48.022;11.810;2022-07-29T00:13:13;20.00;99.90
13035;DHT22;6584;48.022;11.810;2022-07-29T00:15:39;20.00;99.90
13035;DHT22;6584;48.022;11.810;2022-07-29T00:18:05;19.90;99.90
13035;DHT22;6584;48.022;11.810;2022-07-29T00:20:30;19.90;99.90
13035;DHT22;6584;48.022;11.810;2022-07-29T00:22:56;19.90;99.90
13035;DHT22;6584;48.022;11.810;2022-07-29T00:25:21;20.00;99.90
13035;DHT22;6584;48.022;11.810;2022-07-29T00:27:47;20.00;99.90
13035;DHT22;6584;48.022;11.810;2022-07-29T00:30:13;20.00;99.90
13035;DHT22;6584;48.022;11.810;2022-07-29T00:32:38;20.00;99.90
13035;DHT22;6584;48.022;11.810;2022-07-29T00:35:05;20.00;99.90
13035;DHT22;6584;48.022;11.810;2022-07-29T00:37:49;20.10;99.90
13035;DHT22;6584;48.022;11.810;2022-07-29T00:40:15;20.10;99.90
13035;DHT22;6584;48.022;11.810;2022-07-29T00:42:45;20.10;99.90
13035;DHT22;6584;48.022;11.810;2022-07-29T00:45:11;20.00;99.90
13035;DHT22;6584;48.022;11.810;2022-07-29T00:47:37;20.10;99.90
13035;DHT22;6584;48.022;11.810;2022-07-29T00:50:04;20.10;99.90
13035;DHT22;6584;48.022;11.810;2022-07-29T00:52:33;20.00;99.90
13035;DHT22;6584;48.022;11.810;2022-07-29T00:54:58;20.00;99.90
13035;DHT22;6584;48.022;11.810;2022-07-29T00:57:24;20.00;99.90
13035;DHT22;6584;48.022;11.810;2022-07-29T00:59:50;20.00;99.90
13035;DHT22;6584;48.022;11.810;2022-07-29T01:02:15;19.90;99.90
13035;DHT22;6584;48.022;11.810;2022-07-29T01:04:41;19.90;99.90
13035;DHT22;6584;48.022;11.810;2022-07-29T01:07:07;19.90;99.90
13035;DHT22;6584;48.022;11.810;2022-07-29T01:09:33;19.80;99.90
13035;DHT22;6584;48.022;11.810;2022-07-29T01:11:59;19.80;99.90
13035;DHT22;6584;48.022;11.810;2022-07-29T01:14:25;19.80;99.90
13035;DHT22;6584;48.022;11.810;2022-07-29T01:16:56;19.70;99.90
13035;DHT22;6584;48.022;11.810;2022-07-29T01:22:36;19.70;99.90
13035;DHT22;6584;48.022;11.810;2022-07-29T01:25:14;19.70;99.90
13035;DHT22;6584;48.022;11.810;2022-07-29T01:28:01;19.60;99.90
13035;DHT22;6584;48.022;11.810;2022-07-29T01:30:34;19.60;99.90
13035;DHT22;6584;48.022;11.810;2022-07-29T01:33:11;19.60;99.90
13035;DHT22;6584;48.022;11.810;2022-07-29T01:35:58;19.60;99.90
13035;DHT22;6584;48.022;11.810;2022-07-29T01:38:25;19.60;99.90
13035;DHT22;6584;48.022;11.810;2022-07-29T01:40:58;19.60;99.90
13035;DHT22;6584;48.022;11.810;2022-07-29T01:43:39;19.60;99.90
13035;DHT22;6584;48.022;11.810;2022-07-29T01:46:11;19.50;99.90
13035;DHT22;6584;48.022;11.810;2022-07-29T01:48:52;19.40;99.90
13035;DHT22;6584;48.022;11.810;2022-07-29T01:51:19;19.50;99.90
13035;DHT22;6584;48.022;11.810;2022-07-29T01:54:10;19.40;99.90
13035;DHT22;6584;48.022;11.810;2022-07-29T01:56:39;19.40;99.90
13035;DHT22;6584;48.022;11.810;2022-07-29T01:59:06;19.50;99.90
13035;DHT22;6584;48.022;11.810;2022-07-29T02:01:33;19.30;99.90
13035;DHT22;6584;48.022;11.810;2022-07-29T02:04:03;19.20;99.90
13035;DHT22;6584;48.022;11.810;2022-07-29T02:06:30;19.20;99.90
13035;DHT22;6584;48.022;11.810;2022-07-29T02:08:58;19.30;99.90
13035;DHT22;6584;48.022;11.810;2022-07-29T02:11:25;19.30;99.90
13035;DHT22;6584;48.022;11.810;2022-07-29T02:13:52;19.30;99.90
13035;DHT22;6584;48.022;11.810;2022-07-29T02:16:21;19.20;99.90
13035;DHT22;6584;48.022;11.810;2022-07-29T02:18:49;19.20;99.90
13035;DHT22;6584;48.022;11.810;2022-07-29T02:21:21;19.20;99.90
13035;DHT22;6584;48.022;11.810;2022-07-29T02:23:48;19.20;99.90
13035;DHT22;6584;48.022;11.810;2022-07-29T02:26:15;19.10;99.90
13035;DHT22;6584;48.022;11.810;2022-07-29T02:28:42;19.10;99.90
13035;DHT22;6584;48.022;11.810;2022-07-29T02:31:09;19.20;99.90
13035;DHT22;6584;48.022;11.810;2022-07-29T02:33:35;19.20;99.90
13035;DHT22;6584;48.022;11.810;2022-07-29T02:36:02;19.20;99.90
13035;DHT22;6584;48.022;11.810;2022-07-29T02:38:28;19.20;99.90
13035;DHT22;6584;48.022;11.810;2022-07-29T02:41:18;19.20;99.90
13035;DHT22;6584;48.022;11.810;2022-07-29T02:43:47;19.20;99.90
13035;DHT22;6584;48.022;11.810;2022-07-29T02:46:20;19.20;99.90
13035;DHT22;6584;48.022;11.810;2022-07-29T02:48:55;19.10;99.90
13035;DHT22;6584;48.022;11.810;2022-07-29T02:55:01;19.00;99.90
13035;DHT22;6584;48.022;11.810;2022-07-29T03:00:03;18.60;99.90
13035;DHT22;6584;48.022;11.810;2022-07-29T03:02:41;18.60;99.90
13035;DHT22;6584;48.022;11.810;2022-07-29T03:05:11;18.70;99.90
13035;DHT22;6584;48.022;11.810;2022-07-29T03:07:38;18.70;99.90
13035;DHT22;6584;48.022;11.810;2022-07-29T03:10:07;18.50;99.90
13035;DHT22;6584;48.022;11.810;2022-07-29T03:12:34;18.20;99.90
13035;DHT22;6584;48.022;11.810;2022-07-29T03:15:01;18.00;99.90
13035;DHT22;6584;48.022;11.810;2022-07-29T03:17:27;18.00;99.90
13035;DHT22;6584;48.022;11.810;2022-07-29T03:19:53;18.20;99.90
13035;DHT22;6584;48.022;11.810;2022-07-29T03:22:19;18.30;99.90
13035;DHT22;6584;48.022;11.810;2022-07-29T03:24:44;18.40;99.90
13035;DHT22;6584;48.022;11.810;2022-07-29T03:27:10;18.40;99.90
13035;DHT22;6584;48.022;11.810;2022-07-29T03:29:36;18.50;99.90
13035;DHT22;6584;48.022;11.810;2022-07-29T03:32:03;18.60;99.90
13035;DHT22;6584;48.022;11.810;2022-07-29T03:34:29;18.50;99.90
13035;DHT22;6584;48.022;11.810;2022-07-29T03:36:55;18.60;99.90
13035;DHT22;6584;48.022;11.810;2022-07-29T03:39:23;18.50;99.90
13035;DHT22;6584;48.022;11.810;2022-07-29T03:41:52;18.60;99.90
13035;DHT22;6584;48.022;11.810;2022-07-29T03:44:19;18.50;99.90
13035;DHT22;6584;48.022;11.810;2022-07-29T03:46:46;18.50;99.90
13035;DHT22;6584;48.022;11.810;2022-07-29T03:49:15;18.60;99.90
13035;DHT22;6584;48.022;11.810;2022-07-29T03:51:42;18.60;99.90
13035;DHT22;6584;48.022;11.810;2022-07-29T03:54:08;18.50;99.90
13035;DHT22;6584;48.022;11.810;2022-07-29T03:56:38;18.50;99.90
13035;DHT22;6584;48.022;11.810;2022-07-29T03:59:05;18.50;99.90
13035;DHT22;6584;48.022;11.810;2022-07-29T04:01:33;18.40;99.90
13035;DHT22;6584;48.022;11.810;2022-07-29T04:04:03;18.50;99.90
13035;DHT22;6584;48.022;11.810;2022-07-29T04:06:37;18.40;99.90
13035;DHT22;6584;48.022;11.810;2022-07-29T04:09:03;18.30;99.90
13035;DHT22;6584;48.022;11.810;2022-07-29T04:11:28;18.20;99.90
13035;DHT22;6584;48.022;11.810;2022-07-29T04:13:54;18.00;99.90
13035;DHT22;6584;48.022;11.810;2022-07-29T04:16:20;18.00;99.90
13035;DHT22;6584;48.022;11.810;2022-07-29T04:18:45;18.10;99.90
13035;DHT22;6584;48.022;11.810;2022-07-29T04:21:11;18.10;99.90
13035;DHT22;6584;48.022;11.810;2022-07-29T04:23:36;18.20;99.90
13035;DHT22;6584;48.022;11.810;2022-07-29T04:26:02;17.90;99.90
13035;DHT22;6584;48.022;11.810;2022-07-29T04:28:27;17.90;99.90
13035;DHT22;6584;48.022;11.810;2022-07-29T04:30:53;18.00;99.90
13035;DHT22;6584;48.022;11.810;2022-07-29T04:33:18;17.90;99.90
13035;DHT22;6584;48.022;11.810;2022-07-29T04:35:44;18.10;99.90
13035;DHT22;6584;48.022;11.810;2022-07-29T04:38:09;18.20;99.90
13035;DHT22;6584;48.022;11.810;2022-07-29T04:40:35;17.90;99.90
13035;DHT22;6584;48.022;11.810;2022-07-29T04:43:01;17.90;99.90
13035;DHT22;6584;48.022;11.810;2022-07-29T04:45:27;18.10;99.90
13035;DHT22;6584;48.022;11.810;2022-07-29T04:47:54;18.20;99.90
13035;DHT22;6584;48.022;11.810;2022-07-29T04:50:20;18.10;99.90
13035;DHT22;6584;48.022;11.810;2022-07-29T04:52:45;18.10;99.90
13035;DHT22;6584;48.022;11.810;2022-07-29T04:55:11;18.20;99.90
13035;DHT22;6584;48.022;11.810;2022-07-29T04:57:36;18.40;99.90
13035;DHT22;6584;48.022;11.810;2022-07-29T05:00:04;18.70;99.90
13035;DHT22;6584;48.022;11.810;2022-07-29T05:02:30;18.90;99.90
13035;DHT22;6584;48.022;11.810;2022-07-29T05:04:56;18.80;99.90
13035;DHT22;6584;48.022;11.810;2022-07-29T05:07:21;19.20;99.90
13035;DHT22;6584;48.022;11.810;2022-07-29T05:09:47;19.70;99.90
13035;DHT22;6584;48.022;11.810;2022-07-29T05:12:12;20.10;99.90
13035;DHT22;6584;48.022;11.810;2022-07-29T05:14:38;20.50;99.90
13035;DHT22;6584;48.022;11.810;2022-07-29T05:17:04;21.00;99.90
13035;DHT22;6584;48.022;11.810;2022-07-29T05:19:29;21.70;99.90
13035;DHT22;6584;48.022;11.810;2022-07-29T05:21:55;22.60;99.90
13035;DHT22;6584;48.022;11.810;2022-07-29T05:24:20;23.90;99.90
13035;DHT22;6584;48.022;11.810;2022-07-29T05:26:46;24.70;99.80
13035;DHT22;6584;48.022;11.810;2022-07-29T05:29:11;25.40;98.50
13035;DHT22;6584;48.022;11.810;2022-07-29T05:31:37;25.90;97.80
13035;DHT22;6584;48.022;11.810;2022-07-29T05:34:02;26.40;97.10
13035;DHT22;6584;48.022;11.810;2022-07-29T05:36:28;26.80;97.20
13035;DHT22;6584;48.022;11.810;2022-07-29T05:38:53;27.10;95.40
13035;DHT22;6584;48.022;11.810;2022-07-29T05:41:19;27.40;94.90
13035;DHT22;6584;48.022;11.810;2022-07-29T05:43:45;27.10;94.60
13035;DHT22;6584;48.022;11.810;2022-07-29T05:46:10;26.30;94.80
13035;DHT22;6584;48.022;11.810;2022-07-29T05:48:36;25.40;96.00
13035;DHT22;6584;48.022;11.810;2022-07-29T05:51:01;24.70;97.10
13035;DHT22;6584;48.022;11.810;2022-07-29T05:53:27;24.10;98.40
13035;DHT22;6584;48.022;11.810;2022-07-29T05:55:53;23.50;98.80
13035;DHT22;6584;48.022;11.810;2022-07-29T05:58:19;23.20;99.70
13035;DHT22;6584;48.022;11.810;2022-07-29T06:00:45;22.80;99.90
13035;DHT22;6584;48.022;11.810;2022-07-29T06:03:11;22.70;99.90
13035;DHT22;6584;48.022;11.810;2022-07-29T06:05:36;23.40;99.90
13035;DHT22;6584;48.022;11.810;2022-07-29T06:08:03;23.80;99.90
13035;DHT22;6584;48.022;11.810;2022-07-29T06:10:30;23.90;99.80
13035;DHT22;6584;48.022;11.810;2022-07-29T06:12:56;24.10;99.20
13035;DHT22;6584;48.022;11.810;2022-07-29T06:15:22;23.60;99.80
13035;DHT22;6584;48.022;11.810;2022-07-29T06:17:47;23.70;99.60
13035;DHT22;6584;48.022;11.810;2022-07-29T06:20:13;24.20;99.90
13035;DHT22;6584;48.022;11.810;2022-07-29T06:22:39;24.50;98.10
13035;DHT22;6584;48.022;11.810;2022-07-29T06:25:04;24.30;99.20
13035;DHT22;6584;48.022;11.810;2022-07-29T06:27:30;25.30;97.00
13035;DHT22;6584;48.022;11.810;2022-07-29T06:29:56;25.70;97.50
13035;DHT22;6584;48.022;11.810;2022-07-29T06:32:22;26.80;96.30
13035;DHT22;6584;48.022;11.810;2022-07-29T06:34:47;27.80;95.10
13035;DHT22;6584;48.022;11.810;2022-07-29T06:37:13;28.60;93.10
13035;DHT22;6584;48.022;11.810;2022-07-29T06:39:39;28.80;93.30
13035;DHT22;6584;48.022;11.810;2022-07-29T06:42:05;29.40;92.50
13035;DHT22;6584;48.022;11.810;2022-07-29T06:44:31;29.60;91.20
13035;DHT22;6584;48.022;11.810;2022-07-29T06:46:59;29.80;91.00
13035;DHT22;6584;48.022;11.810;2022-07-29T06:49:25;29.90;90.50
13035;DHT22;6584;48.022;11.810;2022-07-29T06:51:52;29.90;90.00
13035;DHT22;6584;48.022;11.810;2022-07-29T06:54:17;29.60;90.10
13035;DHT22;6584;48.022;11.810;2022-07-29T06:56:43;29.30;90.00
13035;DHT22;6584;48.022;11.810;2022-07-29T06:59:09;29.10;89.70
13035;DHT22;6584;48.022;11.810;2022-07-29T07:01:42;29.10;90.10
13035;DHT22;6584;48.022;11.810;2022-07-29T07:04:08;29.10;89.20
13035;DHT22;6584;48.022;11.810;2022-07-29T07:06:34;29.20;90.40
13035;DHT22;6584;48.022;11.810;2022-07-29T07:09:00;29.40;89.20
13035;DHT22;6584;48.022;11.810;2022-07-29T07:11:25;29.50;89.40
13035;DHT22;6584;48.022;11.810;2022-07-29T07:13:51;29.30;89.30
13035;DHT22;6584;48.022;11.810;2022-07-29T07:16:16;29.00;89.90
13035;DHT22;6584;48.022;11.810;2022-07-29T07:18:42;28.90;89.90
13035;DHT22;6584;48.022;11.810;2022-07-29T07:21:10;28.80;89.90
13035;DHT22;6584;48.022;11.810;2022-07-29T07:23:35;28.60;90.10
13035;DHT22;6584;48.022;11.810;2022-07-29T07:26:01;28.50;90.60
13035;DHT22;6584;48.022;11.810;2022-07-29T07:28:28;28.40;89.90
13035;DHT22;6584;48.022;11.810;2022-07-29T07:30:54;28.10;89.70
13035;DHT22;6584;48.022;11.810;2022-07-29T07:33:19;27.70;90.20
13035;DHT22;6584;48.022;11.810;2022-07-29T07:35:45;27.40;90.90
13035;DHT22;6584;48.022;11.810;2022-07-29T07:38:11;27.00;90.50
13035;DHT22;6584;48.022;11.810;2022-07-29T07:40:36;26.80;91.20
13035;DHT22;6584;48.022;11.810;2022-07-29T07:43:02;26.60;91.50
13035;DHT22;6584;48.022;11.810;2022-07-29T07:45:28;26.50;91.80
13035;DHT22;6584;48.022;11.810;2022-07-29T07:47:53;25.80;92.20
13035;DHT22;6584;48.022;11.810;2022-07-29T07:50:19;25.60;93.00
13035;DHT22;6584;48.022;11.810;2022-07-29T07:52:50;25.90;92.20
13035;DHT22;6584;48.022;11.810;2022-07-29T07:55:16;25.90;92.10
13035;DHT22;6584;48.022;11.810;2022-07-29T07:57:42;25.90;91.80
13035;DHT22;6584;48.022;11.810;2022-07-29T08:00:08;25.70;92.00
13035;DHT22;6584;48.022;11.810;2022-07-29T08:02:34;25.70;92.60
13035;DHT22;6584;48.022;11.810;2022-07-29T08:04:59;25.50;92.70
13035;DHT22;6584;48.022;11.810;2022-07-29T08:07:25;25.50;92.90
13035;DHT22;6584;48.022;11.810;2022-07-29T08:09:50;25.70;93.00
13035;DHT22;6584;48.022;11.810;2022-07-29T08:12:16;26.00;92.50
13035;DHT22;6584;48.022;11.810;2022-07-29T08:14:41;26.20;91.80
13035;DHT22;6584;48.022;11.810;2022-07-29T08:17:07;26.10;91.10
13035;DHT22;6584;48.022;11.810;2022-07-29T08:19:33;26.10;91.80
13035;DHT22;6584;48.022;11.810;2022-07-29T08:21:58;26.30;90.80
13035;DHT22;6584;48.022;11.810;2022-07-29T08:24:24;26.20;90.90
13035;DHT22;6584;48.022;11.810;2022-07-29T08:27:08;26.20;91.00
13035;DHT22;6584;48.022;11.810;2022-07-29T08:29:34;26.20;90.70
13035;DHT22;6584;48.022;11.810;2022-07-29T08:32:00;26.10;91.10
13035;DHT22;6584;48.022;11.810;2022-07-29T08:34:25;26.20;91.00
13035;DHT22;6584;48.022;11.810;2022-07-29T08:36:51;26.20;90.90
13035;DHT22;6584;48.022;11.810;2022-07-29T08:39:17;26.20;91.10
13035;DHT22;6584;48.022;11.810;2022-07-29T08:41:42;26.40;90.50
13035;DHT22;6584;48.022;11.810;2022-07-29T08:44:08;26.30;90.60
13035;DHT22;6584;48.022;11.810;2022-07-29T08:46:37;26.20;91.10
13035;DHT22;6584;48.022;11.810;2022-07-29T08:49:03;26.20;90.50
13035;DHT22;6584;48.022;11.810;2022-07-29T08:51:30;26.30;90.30
13035;DHT22;6584;48.022;11.810;2022-07-29T08:53:56;26.10;90.10
13035;DHT22;6584;48.022;11.810;2022-07-29T08:56:22;26.30;91.20
13035;DHT22;6584;48.022;11.810;2022-07-29T08:58:49;26.30;90.70
13035;DHT22;6584;48.022;11.810;2022-07-29T09:01:17;26.50;90.00
13035;DHT22;6584;48.022;11.810;2022-07-29T09:03:44;26.50;90.00
13035;DHT22;6584;48.022;11.810;2022-07-29T09:06:13;26.40;89.90
13035;DHT22;6584;48.022;11.810;2022-07-29T09:08:39;26.30;90.40
13035;DHT22;6584;48.022;11.810;2022-07-29T09:11:05;26.40;90.00
13035;DHT22;6584;48.022;11.810;2022-07-29T09:13:32;26.50;90.30
13035;DHT22;6584;48.022;11.810;2022-07-29T09:15:58;26.60;90.20
13035;DHT22;6584;48.022;11.810;2022-07-29T09:18:39;26.50;89.80
13035;DHT22;6584;48.022;11.810;2022-07-29T09:21:07;26.50;90.60
13035;DHT22;6584;48.022;11.810;2022-07-29T09:24:10;26.40;89.90
13035;DHT22;6584;48.022;11.810;2022-07-29T09:26:40;26.40;90.60
13035;DHT22;6584;48.022;11.810;2022-07-29T09:29:14;26.70;91.10
13035;DHT22;6584;48.022;11.810;2022-07-29T09:31:42;26.80;89.80
13035;DHT22;6584;48.022;11.810;2022-07-29T09:34:10;26.90;90.00
13035;DHT22;6584;48.022;11.810;2022-07-29T09:36:46;27.00;90.20
13035;DHT22;6584;48.022;11.810;2022-07-29T09:39:13;26.90;90.10
13035;DHT22;6584;48.022;11.810;2022-07-29T09:41:53;27.00;90.40
13035;DHT22;6584;48.022;11.810;2022-07-29T09:44:20;27.00;90.80
13035;DHT22;6584;48.022;11.810;2022-07-29T09:47:03;26.80;90.90
13035;DHT22;6584;48.022;11.810;2022-07-29T09:49:33;26.90;90.90
13035;DHT22;6584;48.022;11.810;2022-07-29T09:52:07;27.00;90.80
13035;DHT22;6584;48.022;11.810;2022-07-29T09:54:34;26.90;90.00
13035;DHT22;6584;48.022;11.810;2022-07-29T09:57:07;27.10;90.80
13035;DHT22;6584;48.022;11.810;2022-07-29T09:59:35;27.30;90.70
13035;DHT22;6584;48.022;11.810;2022-07-29T10:02:01;27.40;90.50
13035;DHT22;6584;48.022;11.810;2022-07-29T10:04:37;27.40;90.50
13035;DHT22;6584;48.022;11.810;2022-07-29T10:07:04;27.50;90.50
13035;DHT22;6584;48.022;11.810;2022-07-29T10:09:31;27.30;90.30
13035;DHT22;6584;48.022;11.810;2022-07-29T10:14:33;26.90;90.60
13035;DHT22;6584;48.022;11.810;2022-07-29T10:17:00;26.80;91.00
13035;DHT22;6584;48.022;11.810;2022-07-29T10:19:29;26.70;91.60
13035;DHT22;6584;48.022;11.810;2022-07-29T10:21:59;26.70;91.50
13035;DHT22;6584;48.022;11.810;2022-07-29T10:24:30;26.70;91.00
13035;DHT22;6584;48.022;11.810;2022-07-29T10:26:57;26.70;90.80
13035;DHT22;6584;48.022;11.810;2022-07-29T10:29:24;26.70;91.30
13035;DHT22;6584;48.022;11.810;2022-07-29T10:34:52;26.80;91.50
13035;DHT22;6584;48.022;11.810;2022-07-29T10:43:32;26.80;91.80
13035;DHT22;6584;48.022;11.810;2022-07-29T10:46:02;27.20;91.70
13035;DHT22;6584;48.022;11.810;2022-07-29T10:48:28;27.40;91.60
13035;DHT22;6584;48.022;11.810;2022-07-29T10:51:03;27.60;91.80
13035;DHT22;6584;48.022;11.810;2022-07-29T10:56:27;27.30;92.10
13035;DHT22;6584;48.022;11.810;2022-07-29T11:01:43;27.10;91.50
13035;DHT22;6584;48.022;11.810;2022-07-29T11:04:09;27.00;92.20
13035;DHT22;6584;48.022;11.810;2022-07-29T11:09:24;26.60;91.20
13035;DHT22;6584;48.022;11.810;2022-07-29T11:11:49;26.30;91.80
13035;DHT22;6584;48.022;11.810;2022-07-29T11:14:15;26.10;92.20
13035;DHT22;6584;48.022;11.810;2022-07-29T11:16:59;25.90;92.30
13035;DHT22;6584;48.022;11.810;2022-07-29T11:19:27;25.90;92.00
13035;DHT22;6584;48.022;11.810;2022-07-29T11:21:52;25.90;92.40
13035;DHT22;6584;48.022;11.810;2022-07-29T11:24:27;25.90;92.40
13035;DHT22;6584;48.022;11.810;2022-07-29T11:27:09;25.80;92.40
13035;DHT22;6584;48.022;11.810;2022-07-29T11:29:58;25.60;92.50
13035;DHT22;6584;48.022;11.810;2022-07-29T11:32:37;25.60;92.50
13035;DHT22;6584;48.022;11.810;2022-07-29T11:35:22;25.70;92.80
13035;DHT22;6584;48.022;11.810;2022-07-29T11:38:26;25.90;92.90
13035;DHT22;6584;48.022;11.810;2022-07-29T11:43:54;26.20;92.70
13035;DHT22;6584;48.022;11.810;2022-07-29T11:46:46;26.30;92.10
13035;DHT22;6584;48.022;11.810;2022-07-29T11:49:13;26.50;92.80
13035;DHT22;6584;48.022;11.810;2022-07-29T11:51:53;26.80;90.80
13035;DHT22;6584;48.022;11.810;2022-07-29T11:54:25;27.00;89.70
13035;DHT22;6584;48.022;11.810;2022-07-29T11:56:53;27.00;88.80
13035;DHT22;6584;48.022;11.810;2022-07-29T11:59:21;27.00;89.40
13035;DHT22;6584;48.022;11.810;2022-07-29T12:04:19;27.20;90.00
13035;DHT22;6584;48.022;11.810;2022-07-29T12:06:49;27.30;88.50
13035;DHT22;6584;48.022;11.810;2022-07-29T12:09:15;27.20;84.70
13035;DHT22;6584;48.022;11.810;2022-07-29T12:11:43;27.10;85.40
13035;DHT22;6584;48.022;11.810;2022-07-29T12:14:08;27.30;85.70
13035;DHT22;6584;48.022;11.810;2022-07-29T12:16:37;27.40;85.10
13035;DHT22;6584;48.022;11.810;2022-07-29T12:19:04;27.40;85.60
13035;DHT22;6584;48.022;11.810;2022-07-29T12:21:46;27.40;86.10
13035;DHT22;6584;48.022;11.810;2022-07-29T12:24:12;27.30;84.70
13035;DHT22;6584;48.022;11.810;2022-07-29T12:26:50;27.30;85.60
13035;DHT22;6584;48.022;11.810;2022-07-29T12:29:16;27.30;85.30
13035;DHT22;6584;48.022;11.810;2022-07-29T12:31:42;27.20;86.30
13035;DHT22;6584;48.022;11.810;2022-07-29T12:34:13;27.40;86.70
13035;DHT22;6584;48.022;11.810;2022-07-29T12:36:43;27.30;86.30
13035;DHT22;6584;48.022;11.810;2022-07-29T12:39:10;27.30;85.30
13035;DHT22;6584;48.022;11.810;2022-07-29T12:41:35;27.30;85.60
13035;DHT22;6584;48.022;11.810;2022-07-29T12:44:01;27.20;85.60
13035;DHT22;6584;48.022;11.810;2022-07-29T12:46:27;27.20;86.60
13035;DHT22;6584;48.022;11.810;2022-07-29T12:48:53;27.30;86.80
13035;DHT22;6584;48.022;11.810;2022-07-29T12:51:32;27.30;86.00
13035;DHT22;6584;48.022;11.810;2022-07-29T12:54:15;27.30;86.00
13035;DHT22;6584;48.022;11.810;2022-07-29T12:56:42;27.30;85.30
13035;DHT22;6584;48.022;11.810;2022-07-29T12:59:26;27.40;85.20
13035;DHT22;6584;48.022;11.810;2022-07-29T13:01:52;27.60;86.40
13035;DHT22;6584;48.022;11.810;2022-07-29T13:04:32;27.80;85.30
13035;DHT22;6584;48.022;11.810;2022-07-29T13:06:59;27.90;84.60
13035;DHT22;6584;48.022;11.810;2022-07-29T13:09:41;27.70;85.70
13035;DHT22;6584;48.022;11.810;2022-07-29T13:12:09;27.80;85.20
13035;DHT22;6584;48.022;11.810;2022-07-29T13:14:47;27.70;85.20
13035;DHT22;6584;48.022;11.810;2022-07-29T13:17:20;27.80;85.20
13035;DHT22;6584;48.022;11.810;2022-07-29T13:19:50;27.90;84.50
13035;DHT22;6584;48.022;11.810;2022-07-29T13:22:21;27.90;85.20
13035;DHT22;6584;48.022;11.810;2022-07-29T13:24:58;27.80;83.40
13035;DHT22;6584;48.022;11.810;2022-07-29T13:27:28;27.90;82.30
13035;DHT22;6584;48.022;11.810;2022-07-29T13:29:55;27.80;82.10
13035;DHT22;6584;48.022;11.810;2022-07-29T13:32:25;27.60;81.40
13035;DHT22;6584;48.022;11.810;2022-07-29T13:34:52;27.60;82.40
13035;DHT22;6584;48.022;11.810;2022-07-29T13:37:19;27.50;81.50
13035;DHT22;6584;48.022;11.810;2022-07-29T13:39:45;27.50;81.80
13035;DHT22;6584;48.022;11.810;2022-07-29T13:42:10;27.30;82.00
13035;DHT22;6584;48.022;11.810;2022-07-29T13:44:39;27.30;81.90
13035;DHT22;6584;48.022;11.810;2022-07-29T13:47:05;27.30;83.00
13035;DHT22;6584;48.022;11.810;2022-07-29T13:49:30;27.20;83.20
13035;DHT22;6584;48.022;11.810;2022-07-29T13:51:56;27.30;83.40
13035;DHT22;6584;48.022;11.810;2022-07-29T13:54:22;27.20;84.80
13035;DHT22;6584;48.022;11.810;2022-07-29T13:56:50;27.10;84.20
13035;DHT22;6584;48.022;11.810;2022-07-29T13:59:16;27.10;85.20
13035;DHT22;6584;48.022;11.810;2022-07-29T14:01:41;27.00;86.10
13035;DHT22;6584;48.022;11.810;2022-07-29T14:04:08;26.80;85.30
13035;DHT22;6584;48.022;11.810;2022-07-29T14:06:34;26.90;85.70
13035;DHT22;6584;48.022;11.810;2022-07-29T14:08:59;26.90;85.30
13035;DHT22;6584;48.022;11.810;2022-07-29T14:11:25;26.80;85.30
13035;DHT22;6584;48.022;11.810;2022-07-29T14:13:51;26.70;86.80
13035;DHT22;6584;48.022;11.810;2022-07-29T14:16:16;26.70;87.20
13035;DHT22;6584;48.022;11.810;2022-07-29T14:18:42;26.60;86.70
13035;DHT22;6584;48.022;11.810;2022-07-29T14:21:08;26.60;86.10
13035;DHT22;6584;48.022;11.810;2022-07-29T14:23:33;26.60;86.40
13035;DHT22;6584;48.022;11.810;2022-07-29T14:25:59;26.60;86.30
13035;DHT22;6584;48.022;11.810;2022-07-29T14:28:25;26.60;86.00
13035;DHT22;6584;48.022;11.810;2022-07-29T14:30:50;26.70;85.10
13035;DHT22;6584;48.022;11.810;2022-07-29T14:33:16;26.80;84.80
13035;DHT22;6584;48.022;11.810;2022-07-29T14:35:41;26.80;86.10
13035;DHT22;6584;48.022;11.810;2022-07-29T14:38:07;26.90;85.60
13035;DHT22;6584;48.022;11.810;2022-07-29T14:40:33;27.00;85.30
13035;DHT22;6584;48.022;11.810;2022-07-29T14:42:59;27.20;84.20
13035;DHT22;6584;48.022;11.810;2022-07-29T14:45:25;27.30;82.30
13035;DHT22;6584;48.022;11.810;2022-07-29T14:47:50;27.30;81.90
13035;DHT22;6584;48.022;11.810;2022-07-29T14:50:16;27.20;83.10
13035;DHT22;6584;48.022;11.810;2022-07-29T14:52:42;27.10;83.50
13035;DHT22;6584;48.022;11.810;2022-07-29T14:55:08;27.20;84.40
13035;DHT22;6584;48.022;11.810;2022-07-29T14:57:34;27.20;84.50
13035;DHT22;6584;48.022;11.810;2022-07-29T14:59:59;27.40;85.00
13035;DHT22;6584;48.022;11.810;2022-07-29T15:02:25;27.60;82.40
13035;DHT22;6584;48.022;11.810;2022-07-29T15:04:50;27.40;83.10
13035;DHT22;6584;48.022;11.810;2022-07-29T15:07:16;27.30;82.90
13035;DHT22;6584;48.022;11.810;2022-07-29T15:09:42;27.20;84.30
13035;DHT22;6584;48.022;11.810;2022-07-29T15:12:10;27.10;84.30
13035;DHT22;6584;48.022;11.810;2022-07-29T15:14:36;27.00;84.40
13035;DHT22;6584;48.022;11.810;2022-07-29T15:17:01;27.10;85.00
13035;DHT22;6584;48.022;11.810;2022-07-29T15:19:27;27.20;85.80
13035;DHT22;6584;48.022;11.810;2022-07-29T15:21:52;27.00;85.20
13035;DHT22;6584;48.022;11.810;2022-07-29T15:24:19;26.90;86.60
13035;DHT22;6584;48.022;11.810;2022-07-29T15:26:45;27.00;87.00
13035;DHT22;6584;48.022;11.810;2022-07-29T15:29:11;27.00;86.20
13035;DHT22;6584;48.022;11.810;2022-07-29T15:31:36;26.90;87.90
13035;DHT22;6584;48.022;11.810;2022-07-29T15:34:02;26.80;88.60
13035;DHT22;6584;48.022;11.810;2022-07-29T15:36:27;26.60;89.50
13035;DHT22;6584;48.022;11.810;2022-07-29T15:38:53;26.50;89.70
13035;DHT22;6584;48.022;11.810;2022-07-29T15:41:20;26.30;89.50
13035;DHT22;6584;48.022;11.810;2022-07-29T15:43:46;26.20;90.20
13035;DHT22;6584;48.022;11.810;2022-07-29T15:46:14;26.10;90.60
13035;DHT22;6584;48.022;11.810;2022-07-29T15:48:59;26.10;91.30
13035;DHT22;6584;48.022;11.810;2022-07-29T15:51:25;26.20;91.00
13035;DHT22;6584;48.022;11.810;2022-07-29T15:53:50;26.10;91.20
13035;DHT22;6584;48.022;11.810;2022-07-29T15:56:16;26.10;91.50
13035;DHT22;6584;48.022;11.810;2022-07-29T15:58:42;26.00;91.30
13035;DHT22;6584;48.022;11.810;2022-07-29T16:01:08;25.90;91.80
13035;DHT22;6584;48.022;11.810;2022-07-29T16:03:33;25.80;91.80
13035;DHT22;6584;48.022;11.810;2022-07-29T16:05:59;25.70;91.80
13035;DHT22;6584;48.022;11.810;2022-07-29T16:08:25;25.70;91.80
13035;DHT22;6584;48.022;11.810;2022-07-29T16:10:50;25.60;91.50